UAE732 EGLL-LSZH
Flight info
| Callsign | UAE732 |
|---|---|
| Flight time | N/A |
| Altitude | 29000 |
| Route | DET L6 DVR UL9 KONAN DCT KOK DCT SISGA DCT RITAX DCT KRH M150 LAMGO/N0459F270 T721 SUL/N0446F250 T721 RILAX |
| Aircraft | B77L/H-SDE1E2E3FGHIJ2J3J4J5M1RWXY/LB1D1 |
Departure
| Time | 2026-05-07 12:08 |
|---|---|
| Airport | London Heathrow Airport (EGLL) |
Arrival
| Time | N/A |
|---|---|
| Airport | Zürich Airport (LSZH) |
| Time | Latitude | Longitude | Altitude | Speed | Heading |
|---|---|---|---|---|---|
| 2026-05-07 11:28 | 51.47267 | -0.46302 | 93 ft | 0 kts | 56° |
| 2026-05-07 11:55 | 51.47254 | -0.46329 | 95 ft | 4 kts | 43° |
| 2026-05-07 11:56 | 51.47232 | -0.46353 | 91 ft | 4 kts | 21° |
| 2026-05-07 11:56 | 51.47207 | -0.46363 | 90 ft | 4 kts | 0° |
| 2026-05-07 11:56 | 51.47181 | -0.46358 | 92 ft | 4 kts | 336° |
| 2026-05-07 11:56 | 51.47170 | -0.46349 | 90 ft | 0 kts | 326° |
| 2026-05-07 11:59 | 51.47178 | -0.46357 | 91 ft | 3 kts | 326° |
| 2026-05-07 11:59 | 51.47205 | -0.46389 | 94 ft | 7 kts | 322° |
| 2026-05-07 11:59 | 51.47236 | -0.46464 | 94 ft | 10 kts | 283° |
| 2026-05-07 12:00 | 51.47237 | -0.46588 | 90 ft | 13 kts | 271° |
| 2026-05-07 12:00 | 51.47238 | -0.46677 | 90 ft | 3 kts | 269° |
| 2026-05-07 12:00 | 51.47236 | -0.46729 | 94 ft | 6 kts | 264° |
| 2026-05-07 12:00 | 51.47232 | -0.46816 | 93 ft | 9 kts | 257° |
| 2026-05-07 12:01 | 51.47182 | -0.46867 | 93 ft | 10 kts | 177° |
| 2026-05-07 12:01 | 51.47102 | -0.46863 | 92 ft | 13 kts | 179° |
| 2026-05-07 12:01 | 51.47003 | -0.46861 | 91 ft | 16 kts | 179° |
| 2026-05-07 12:01 | 51.46920 | -0.46861 | 93 ft | 9 kts | 180° |
| 2026-05-07 12:02 | 51.46862 | -0.46861 | 93 ft | 9 kts | 180° |
| 2026-05-07 12:02 | 51.46790 | -0.46862 | 93 ft | 12 kts | 186° |
| 2026-05-07 12:02 | 51.46748 | -0.46966 | 94 ft | 13 kts | 268° |
| 2026-05-07 12:02 | 51.46746 | -0.47129 | 94 ft | 16 kts | 269° |
| 2026-05-07 12:03 | 51.46745 | -0.47324 | 91 ft | 19 kts | 270° |
| 2026-05-07 12:03 | 51.46745 | -0.47547 | 91 ft | 21 kts | 269° |
| 2026-05-07 12:03 | 51.46744 | -0.47795 | 91 ft | 23 kts | 269° |
| 2026-05-07 12:03 | 51.46742 | -0.48064 | 91 ft | 25 kts | 269° |
| 2026-05-07 12:04 | 51.46742 | -0.48351 | 91 ft | 26 kts | 270° |
| 2026-05-07 12:04 | 51.46742 | -0.48594 | 91 ft | 20 kts | 270° |
| 2026-05-07 12:04 | 51.46728 | -0.48720 | 95 ft | 9 kts | 230° |
| 2026-05-07 12:04 | 51.46665 | -0.48744 | 94 ft | 9 kts | 178° |
| 2026-05-07 12:05 | 51.46620 | -0.48756 | 93 ft | 8 kts | 198° |
| 2026-05-07 12:05 | 51.46604 | -0.48765 | 94 ft | 0 kts | 198° |
| 2026-05-07 12:05 | 51.46581 | -0.48775 | 93 ft | 9 kts | 195° |
| 2026-05-07 12:06 | 51.46528 | -0.48780 | 94 ft | 9 kts | 167° |
| 2026-05-07 12:06 | 51.46479 | -0.48653 | 93 ft | 18 kts | 93° |
| 2026-05-07 12:06 | 51.46479 | -0.48604 | 92 ft | 0 kts | 90° |
| 2026-05-07 12:07 | 51.46479 | -0.48603 | 92 ft | 0 kts | 90° |
| 2026-05-07 12:07 | 51.46479 | -0.48451 | 91 ft | 44 kts | 90° |
| 2026-05-07 12:07 | 51.46477 | -0.47271 | 96 ft | 167 kts | 94° |
| 2026-05-07 12:08 | 51.46487 | -0.45110 | 917 ft | 204 kts | 90° |
| 2026-05-07 12:08 | 51.46479 | -0.42769 | 1874 ft | 216 kts | 91° |
| 2026-05-07 12:08 | 51.46352 | -0.40333 | 2634 ft | 226 kts | 105° |
| 2026-05-07 12:08 | 51.45626 | -0.37933 | 3136 ft | 253 kts | 128° |
| 2026-05-07 12:09 | 51.44506 | -0.35918 | 4389 ft | 233 kts | 130° |
| 2026-05-07 12:09 | 51.43668 | -0.33789 | 5725 ft | 224 kts | 116° |
| 2026-05-07 12:09 | 51.43114 | -0.31273 | 6031 ft | 259 kts | 105° |
| 2026-05-07 12:09 | 51.42753 | -0.28333 | 6006 ft | 272 kts | 101° |
| 2026-05-07 12:10 | 51.42377 | -0.25338 | 6082 ft | 276 kts | 103° |
| 2026-05-07 12:10 | 51.41960 | -0.22303 | 6066 ft | 280 kts | 103° |
| 2026-05-07 12:10 | 51.41539 | -0.19263 | 6026 ft | 277 kts | 103° |
| 2026-05-07 12:10 | 51.41124 | -0.16254 | 6393 ft | 277 kts | 103° |
| 2026-05-07 12:11 | 51.40709 | -0.13210 | 7461 ft | 278 kts | 103° |
| 2026-05-07 12:11 | 51.40296 | -0.10191 | 8573 ft | 278 kts | 103° |
| 2026-05-07 12:11 | 51.39878 | -0.07160 | 9616 ft | 280 kts | 103° |
| 2026-05-07 12:11 | 51.39453 | -0.04096 | 10529 ft | 285 kts | 103° |
| 2026-05-07 12:12 | 51.39018 | -0.00972 | 11450 ft | 290 kts | 103° |
| 2026-05-07 12:12 | 51.38580 | 0.02171 | 12449 ft | 295 kts | 103° |
| 2026-05-07 12:12 | 51.38129 | 0.05404 | 13537 ft | 299 kts | 103° |
| 2026-05-07 12:12 | 51.37670 | 0.08691 | 14509 ft | 306 kts | 103° |
| 2026-05-07 12:13 | 51.37189 | 0.12116 | 15039 ft | 329 kts | 103° |
| 2026-05-07 12:13 | 51.36663 | 0.15853 | 15277 ft | 360 kts | 103° |
| 2026-05-07 12:13 | 51.36087 | 0.19934 | 15523 ft | 389 kts | 103° |
| 2026-05-07 12:13 | 51.35480 | 0.24229 | 16233 ft | 401 kts | 103° |
| 2026-05-07 12:14 | 51.34857 | 0.28633 | 17110 ft | 409 kts | 103° |
| 2026-05-07 12:14 | 51.34223 | 0.33104 | 18070 ft | 415 kts | 104° |
| 2026-05-07 12:14 | 51.33578 | 0.37635 | 18935 ft | 420 kts | 104° |
| 2026-05-07 12:14 | 51.32925 | 0.42210 | 19734 ft | 426 kts | 104° |
| 2026-05-07 12:15 | 51.32260 | 0.46854 | 20377 ft | 431 kts | 104° |
| 2026-05-07 12:15 | 51.31584 | 0.51556 | 21187 ft | 436 kts | 104° |
| 2026-05-07 12:15 | 51.30906 | 0.56243 | 21986 ft | 441 kts | 104° |
| 2026-05-07 12:15 | 51.30200 | 0.61040 | 22771 ft | 446 kts | 105° |
| 2026-05-07 12:16 | 51.29384 | 0.65852 | 23531 ft | 451 kts | 107° |
| 2026-05-07 12:16 | 51.28480 | 0.70760 | 24192 ft | 456 kts | 108° |
| 2026-05-07 12:16 | 51.27570 | 0.75575 | 24859 ft | 460 kts | 108° |
| 2026-05-07 12:16 | 51.26644 | 0.80484 | 25540 ft | 464 kts | 108° |
| 2026-05-07 12:17 | 51.25715 | 0.85446 | 26195 ft | 468 kts | 108° |
| 2026-05-07 12:17 | 51.24785 | 0.90449 | 26836 ft | 473 kts | 107° |
| 2026-05-07 12:17 | 51.23849 | 0.95510 | 27468 ft | 477 kts | 107° |
| 2026-05-07 12:17 | 51.22936 | 1.00444 | 28040 ft | 481 kts | 107° |
| 2026-05-07 12:18 | 51.21984 | 1.05583 | 28616 ft | 485 kts | 107° |
| 2026-05-07 12:18 | 51.21022 | 1.10756 | 29104 ft | 490 kts | 107° |
| 2026-05-07 12:18 | 51.20042 | 1.16007 | 29083 ft | 495 kts | 107° |
| 2026-05-07 12:19 | 51.18085 | 1.26452 | 29072 ft | 489 kts | 108° |
| 2026-05-07 12:19 | 51.16337 | 1.36917 | 29084 ft | 490 kts | 101° |
| 2026-05-07 12:20 | 51.15649 | 1.47737 | 29081 ft | 491 kts | 94° |
| 2026-05-07 12:20 | 51.15195 | 1.58536 | 29079 ft | 492 kts | 95° |
| 2026-05-07 12:21 | 51.14682 | 1.69411 | 29081 ft | 492 kts | 95° |
| 2026-05-07 12:21 | 51.14130 | 1.80282 | 29074 ft | 492 kts | 95° |
| 2026-05-07 12:22 | 51.13567 | 1.91151 | 29078 ft | 492 kts | 95° |
| 2026-05-07 12:22 | 51.13008 | 2.01855 | 29071 ft | 492 kts | 95° |
| 2026-05-07 12:23 | 51.12435 | 2.12711 | 29073 ft | 492 kts | 95° |
| 2026-05-07 12:23 | 51.11850 | 2.23573 | 29082 ft | 492 kts | 96° |
| 2026-05-07 12:24 | 51.11256 | 2.34359 | 29080 ft | 493 kts | 96° |
| 2026-05-07 12:24 | 51.10647 | 2.45224 | 29063 ft | 492 kts | 96° |
| 2026-05-07 12:25 | 51.10031 | 2.56069 | 29073 ft | 492 kts | 96° |
| 2026-05-07 12:25 | 51.08611 | 2.66688 | 29070 ft | 490 kts | 109° |
| 2026-05-07 12:26 | 51.05859 | 2.76562 | 29075 ft | 488 kts | 119° |
| 2026-05-07 12:26 | 51.02649 | 2.86032 | 29080 ft | 490 kts | 120° |
| 2026-05-07 12:27 | 50.99399 | 2.95622 | 29068 ft | 490 kts | 119° |
| 2026-05-07 12:27 | 50.96264 | 3.04958 | 29071 ft | 487 kts | 119° |
| 2026-05-07 12:28 | 50.95590 | 3.06968 | 29074 ft | 488 kts | 119° |